sensor_id;sensor_type;location;lat;lon;timestamp;P1;durP1;ratioP1;P2;durP2;ratioP2
8171;SDS011;4127;47.908;10.850;2022-10-16T02:42:01;1.60;;;1.50;;
8171;SDS011;4127;47.908;10.850;2022-10-16T02:44:28;1.43;;;1.33;;
8171;SDS011;4127;47.908;10.850;2022-10-16T02:46:54;2.50;;;1.20;;
8171;SDS011;4127;47.908;10.850;2022-10-16T02:49:21;1.53;;;1.43;;
8171;SDS011;4127;47.908;10.850;2022-10-16T02:51:48;1.60;;;1.43;;
8171;SDS011;4127;47.908;10.850;2022-10-16T02:54:14;2.23;;;1.70;;
8171;SDS011;4127;47.908;10.850;2022-10-16T02:56:41;2.50;;;1.60;;
8171;SDS011;4127;47.908;10.850;2022-10-16T02:59:08;1.57;;;1.47;;
8171;SDS011;4127;47.908;10.850;2022-10-16T03:01:34;1.77;;;1.67;;
8171;SDS011;4127;47.908;10.850;2022-10-16T03:04:02;2.80;;;1.50;;
8171;SDS011;4127;47.908;10.850;2022-10-16T03:06:29;2.00;;;1.70;;
8171;SDS011;4127;47.908;10.850;2022-10-16T03:08:55;1.70;;;1.60;;
8171;SDS011;4127;47.908;10.850;2022-10-16T03:11:22;1.40;;;1.30;;
8171;SDS011;4127;47.908;10.850;2022-10-16T03:13:49;1.70;;;1.60;;
8171;SDS011;4127;47.908;10.850;2022-10-16T03:16:15;1.83;;;1.73;;
8171;SDS011;4127;47.908;10.850;2022-10-16T03:18:42;1.50;;;1.40;;
8171;SDS011;4127;47.908;10.850;2022-10-16T03:21:09;1.60;;;1.50;;
8171;SDS011;4127;47.908;10.850;2022-10-16T03:23:35;1.80;;;1.70;;
8171;SDS011;4127;47.908;10.850;2022-10-16T03:26:02;1.57;;;1.47;;
8171;SDS011;4127;47.908;10.850;2022-10-16T03:28:29;2.07;;;1.50;;
8171;SDS011;4127;47.908;10.850;2022-10-16T03:30:56;1.67;;;1.57;;
8171;SDS011;4127;47.908;10.850;2022-10-16T03:33:22;1.83;;;1.70;;
8171;SDS011;4127;47.908;10.850;2022-10-16T03:35:53;1.80;;;1.70;;
8171;SDS011;4127;47.908;10.850;2022-10-16T03:38:21;1.73;;;1.63;;
8171;SDS011;4127;47.908;10.850;2022-10-16T03:40:48;1.60;;;1.50;;
8171;SDS011;4127;47.908;10.850;2022-10-16T03:43:14;1.70;;;1.60;;
8171;SDS011;4127;47.908;10.850;2022-10-16T03:45:41;1.73;;;1.63;;
8171;SDS011;4127;47.908;10.850;2022-10-16T03:48:08;2.30;;;2.07;;
8171;SDS011;4127;47.908;10.850;2022-10-16T03:50:35;1.73;;;1.60;;
8171;SDS011;4127;47.908;10.850;2022-10-16T03:53:02;1.83;;;1.70;;
8171;SDS011;4127;47.908;10.850;2022-10-16T03:55:29;1.40;;;1.30;;
8171;SDS011;4127;47.908;10.850;2022-10-16T03:57:56;1.80;;;1.70;;
8171;SDS011;4127;47.908;10.850;2022-10-16T04:00:23;2.60;;;1.60;;
8171;SDS011;4127;47.908;10.850;2022-10-16T04:02:49;1.60;;;1.50;;
8171;SDS011;4127;47.908;10.850;2022-10-16T04:05:16;1.93;;;1.67;;
8171;SDS011;4127;47.908;10.850;2022-10-16T04:07:43;1.60;;;1.40;;
8171;SDS011;4127;47.908;10.850;2022-10-16T04:10:09;1.80;;;1.60;;
8171;SDS011;4127;47.908;10.850;2022-10-16T04:12:36;1.70;;;1.60;;
8171;SDS011;4127;47.908;10.850;2022-10-16T04:15:03;1.60;;;1.50;;
8171;SDS011;4127;47.908;10.850;2022-10-16T04:17:30;1.80;;;1.70;;
8171;SDS011;4127;47.908;10.850;2022-10-16T04:19:56;3.07;;;1.60;;
8171;SDS011;4127;47.908;10.850;2022-10-16T04:22:23;1.50;;;1.40;;
8171;SDS011;4127;47.908;10.850;2022-10-16T04:24:50;2.60;;;1.70;;
8171;SDS011;4127;47.908;10.850;2022-10-16T04:27:17;1.60;;;1.50;;
8171;SDS011;4127;47.908;10.850;2022-10-16T04:29:43;1.77;;;1.67;;
8171;SDS011;4127;47.908;10.850;2022-10-16T04:32:10;1.50;;;1.40;;
8171;SDS011;4127;47.908;10.850;2022-10-16T04:34:38;2.70;;;2.27;;
8171;SDS011;4127;47.908;10.850;2022-10-16T04:37:05;1.50;;;1.40;;
8171;SDS011;4127;47.908;10.850;2022-10-16T04:39:32;1.80;;;1.70;;
8171;SDS011;4127;47.908;10.850;2022-10-16T04:41:59;2.00;;;1.80;;
8171;SDS011;4127;47.908;10.850;2022-10-16T04:44:25;1.63;;;1.40;;
8171;SDS011;4127;47.908;10.850;2022-10-16T04:46:52;1.70;;;1.60;;
8171;SDS011;4127;47.908;10.850;2022-10-16T04:49:19;1.93;;;1.73;;
8171;SDS011;4127;47.908;10.850;2022-10-16T04:51:46;2.33;;;1.50;;
8171;SDS011;4127;47.908;10.850;2022-10-16T04:54:12;1.87;;;1.77;;
8171;SDS011;4127;47.908;10.850;2022-10-16T04:56:39;1.80;;;1.70;;
8171;SDS011;4127;47.908;10.850;2022-10-16T04:59:15;1.60;;;1.50;;
8171;SDS011;4127;47.908;10.850;2022-10-16T05:01:43;1.70;;;1.60;;
8171;SDS011;4127;47.908;10.850;2022-10-16T05:04:10;1.90;;;1.80;;
8171;SDS011;4127;47.908;10.850;2022-10-16T05:06:37;1.80;;;1.70;;
8171;SDS011;4127;47.908;10.850;2022-10-16T05:09:07;1.80;;;1.70;;
8171;SDS011;4127;47.908;10.850;2022-10-16T05:11:34;2.00;;;1.67;;
8171;SDS011;4127;47.908;10.850;2022-10-16T05:14:01;2.10;;;1.50;;
8171;SDS011;4127;47.908;10.850;2022-10-16T05:16:29;1.63;;;1.53;;
8171;SDS011;4127;47.908;10.850;2022-10-16T05:18:56;1.60;;;1.50;;
8171;SDS011;4127;47.908;10.850;2022-10-16T05:21:43;1.60;;;1.50;;
8171;SDS011;4127;47.908;10.850;2022-10-16T05:24:10;1.70;;;1.60;;
8171;SDS011;4127;47.908;10.850;2022-10-16T05:26:36;2.90;;;2.70;;
8171;SDS011;4127;47.908;10.850;2022-10-16T05:29:03;3.67;;;3.10;;
8171;SDS011;4127;47.908;10.850;2022-10-16T05:31:30;2.47;;;2.27;;
8171;SDS011;4127;47.908;10.850;2022-10-16T05:34:00;1.70;;;1.37;;
8171;SDS011;4127;47.908;10.850;2022-10-16T05:36:27;2.20;;;1.40;;
8171;SDS011;4127;47.908;10.850;2022-10-16T05:38:54;1.70;;;1.60;;
8171;SDS011;4127;47.908;10.850;2022-10-16T05:41:20;2.07;;;1.60;;
8171;SDS011;4127;47.908;10.850;2022-10-16T05:43:47;2.50;;;1.90;;
8171;SDS011;4127;47.908;10.850;2022-10-16T05:46:15;1.90;;;1.80;;
8171;SDS011;4127;47.908;10.850;2022-10-16T05:48:42;1.87;;;1.77;;
8171;SDS011;4127;47.908;10.850;2022-10-16T05:51:10;2.00;;;1.70;;
8171;SDS011;4127;47.908;10.850;2022-10-16T05:53:39;1.80;;;1.70;;
8171;SDS011;4127;47.908;10.850;2022-10-16T05:56:07;1.93;;;1.73;;
8171;SDS011;4127;47.908;10.850;2022-10-16T05:58:37;2.07;;;1.90;;
8171;SDS011;4127;47.908;10.850;2022-10-16T06:01:10;2.53;;;1.80;;
8171;SDS011;4127;47.908;10.850;2022-10-16T06:03:39;1.60;;;1.50;;
8171;SDS011;4127;47.908;10.850;2022-10-16T06:06:16;1.90;;;1.70;;
8171;SDS011;4127;47.908;10.850;2022-10-16T06:08:44;1.87;;;1.77;;
8171;SDS011;4127;47.908;10.850;2022-10-16T06:11:13;2.23;;;1.70;;
8171;SDS011;4127;47.908;10.850;2022-10-16T06:13:48;1.90;;;1.80;;
8171;SDS011;4127;47.908;10.850;2022-10-16T06:16:16;2.00;;;1.70;;
8171;SDS011;4127;47.908;10.850;2022-10-16T06:18:43;1.87;;;1.77;;
8171;SDS011;4127;47.908;10.850;2022-10-16T06:21:10;2.33;;;2.13;;
8171;SDS011;4127;47.908;10.850;2022-10-16T06:23:38;4.57;;;4.17;;
8171;SDS011;4127;47.908;10.850;2022-10-16T06:26:06;2.37;;;2.13;;
8171;SDS011;4127;47.908;10.850;2022-10-16T06:28:34;2.00;;;1.70;;
8171;SDS011;4127;47.908;10.850;2022-10-16T06:31:02;2.63;;;1.80;;
8171;SDS011;4127;47.908;10.850;2022-10-16T06:33:33;1.70;;;1.60;;
8171;SDS011;4127;47.908;10.850;2022-10-16T06:36:02;1.60;;;1.50;;
8171;SDS011;4127;47.908;10.850;2022-10-16T06:38:29;1.90;;;1.80;;
8171;SDS011;4127;47.908;10.850;2022-10-16T06:40:56;1.80;;;1.70;;
8171;SDS011;4127;47.908;10.850;2022-10-16T06:43:23;1.70;;;1.60;;
8171;SDS011;4127;47.908;10.850;2022-10-16T06:45:54;1.70;;;1.60;;
8171;SDS011;4127;47.908;10.850;2022-10-16T06:48:22;1.60;;;1.50;;
8171;SDS011;4127;47.908;10.850;2022-10-16T06:50:59;1.80;;;1.70;;
8171;SDS011;4127;47.908;10.850;2022-10-16T06:53:28;1.67;;;1.57;;
8171;SDS011;4127;47.908;10.850;2022-10-16T06:56:08;1.40;;;1.30;;
8171;SDS011;4127;47.908;10.850;2022-10-16T06:58:54;1.97;;;1.87;;
8171;SDS011;4127;47.908;10.850;2022-10-16T07:01:22;1.73;;;1.63;;
8171;SDS011;4127;47.908;10.850;2022-10-16T07:03:50;1.77;;;1.60;;
8171;SDS011;4127;47.908;10.850;2022-10-16T07:06:18;1.70;;;1.60;;
8171;SDS011;4127;47.908;10.850;2022-10-16T07:08:48;1.70;;;1.50;;
8171;SDS011;4127;47.908;10.850;2022-10-16T07:11:16;1.60;;;1.50;;
8171;SDS011;4127;47.908;10.850;2022-10-16T07:13:44;1.50;;;1.40;;
8171;SDS011;4127;47.908;10.850;2022-10-16T07:16:20;1.90;;;1.60;;
8171;SDS011;4127;47.908;10.850;2022-10-16T07:18:48;1.70;;;1.60;;
8171;SDS011;4127;47.908;10.850;2022-10-16T07:21:21;1.87;;;1.77;;
8171;SDS011;4127;47.908;10.850;2022-10-16T07:23:52;2.97;;;1.70;;
8171;SDS011;4127;47.908;10.850;2022-10-16T07:26:20;1.60;;;1.50;;
8171;SDS011;4127;47.908;10.850;2022-10-16T07:28:48;1.93;;;1.83;;
8171;SDS011;4127;47.908;10.850;2022-10-16T07:31:15;2.37;;;2.00;;
8171;SDS011;4127;47.908;10.850;2022-10-16T07:33:43;2.43;;;2.07;;
8171;SDS011;4127;47.908;10.850;2022-10-16T07:36:12;2.10;;;2.00;;
8171;SDS011;4127;47.908;10.850;2022-10-16T07:38:41;2.47;;;2.27;;
8171;SDS011;4127;47.908;10.850;2022-10-16T07:41:09;2.30;;;2.10;;
8171;SDS011;4127;47.908;10.850;2022-10-16T07:43:44;1.80;;;1.70;;
8171;SDS011;4127;47.908;10.850;2022-10-16T07:46:13;2.00;;;1.87;;
8171;SDS011;4127;47.908;10.850;2022-10-16T07:48:40;1.70;;;1.60;;
8171;SDS011;4127;47.908;10.850;2022-10-16T07:51:07;2.00;;;1.90;;
8171;SDS011;4127;47.908;10.850;2022-10-16T07:53:34;1.50;;;1.40;;
8171;SDS011;4127;47.908;10.850;2022-10-16T07:56:01;2.07;;;1.47;;
8171;SDS011;4127;47.908;10.850;2022-10-16T07:58:30;1.70;;;1.60;;
8171;SDS011;4127;47.908;10.850;2022-10-16T08:00:58;1.60;;;1.50;;
8171;SDS011;4127;47.908;10.850;2022-10-16T08:03:28;1.60;;;1.50;;
8171;SDS011;4127;47.908;10.850;2022-10-16T08:05:56;1.37;;;1.30;;
8171;SDS011;4127;47.908;10.850;2022-10-16T08:08:24;1.47;;;1.37;;
8171;SDS011;4127;47.908;10.850;2022-10-16T08:10:51;1.50;;;1.40;;
8171;SDS011;4127;47.908;10.850;2022-10-16T08:13:17;1.40;;;1.30;;
8171;SDS011;4127;47.908;10.850;2022-10-16T08:15:45;1.63;;;1.53;;
8171;SDS011;4127;47.908;10.850;2022-10-16T08:18:12;2.10;;;1.50;;
8171;SDS011;4127;47.908;10.850;2022-10-16T08:20:40;1.90;;;1.80;;
8171;SDS011;4127;47.908;10.850;2022-10-16T08:23:09;1.87;;;1.67;;
8171;SDS011;4127;47.908;10.850;2022-10-16T08:25:38;1.50;;;1.40;;
8171;SDS011;4127;47.908;10.850;2022-10-16T08:28:06;1.93;;;1.50;;
8171;SDS011;4127;47.908;10.850;2022-10-16T08:30:34;2.23;;;1.47;;
8171;SDS011;4127;47.908;10.850;2022-10-16T08:33:01;1.77;;;1.67;;
8171;SDS011;4127;47.908;10.850;2022-10-16T08:35:28;2.17;;;1.60;;
8171;SDS011;4127;47.908;10.850;2022-10-16T08:37:55;1.63;;;1.53;;
8171;SDS011;4127;47.908;10.850;2022-10-16T08:40:22;3.00;;;2.30;;
8171;SDS011;4127;47.908;10.850;2022-10-16T08:48:04;1.60;;;1.50;;
8171;SDS011;4127;47.908;10.850;2022-10-16T08:50:36;2.13;;;1.67;;
8171;SDS011;4127;47.908;10.850;2022-10-16T08:53:05;1.63;;;1.53;;
8171;SDS011;4127;47.908;10.850;2022-10-16T08:55:38;1.70;;;1.60;;
8171;SDS011;4127;47.908;10.850;2022-10-16T08:58:13;1.37;;;1.27;;
8171;SDS011;4127;47.908;10.850;2022-10-16T09:00:42;1.50;;;1.40;;
8171;SDS011;4127;47.908;10.850;2022-10-16T09:11:20;1.43;;;1.33;;
8171;SDS011;4127;47.908;10.850;2022-10-16T09:20:28;1.40;;;1.30;;
8171;SDS011;4127;47.908;10.850;2022-10-16T09:23:14;1.53;;;1.40;;
8171;SDS011;4127;47.908;10.850;2022-10-16T09:25:47;1.30;;;1.20;;
8171;SDS011;4127;47.908;10.850;2022-10-16T09:28:18;1.37;;;1.23;;
8171;SDS011;4127;47.908;10.850;2022-10-16T09:30:46;1.50;;;1.40;;
8171;SDS011;4127;47.908;10.850;2022-10-16T09:33:17;1.20;;;1.20;;
8171;SDS011;4127;47.908;10.850;2022-10-16T09:35:54;1.40;;;1.20;;
8171;SDS011;4127;47.908;10.850;2022-10-16T09:38:28;1.33;;;1.20;;
8171;SDS011;4127;47.908;10.850;2022-10-16T09:41:00;1.00;;;1.00;;
8171;SDS011;4127;47.908;10.850;2022-10-16T09:46:02;1.23;;;1.13;;
8171;SDS011;4127;47.908;10.850;2022-10-16T09:48:43;0.97;;;0.97;;
8171;SDS011;4127;47.908;10.850;2022-10-16T09:51:18;1.27;;;1.17;;
8171;SDS011;4127;47.908;10.850;2022-10-16T09:53:58;0.90;;;0.90;;
8171;SDS011;4127;47.908;10.850;2022-10-16T09:56:28;1.47;;;1.00;;
8171;SDS011;4127;47.908;10.850;2022-10-16T09:59:00;1.17;;;1.10;;
8171;SDS011;4127;47.908;10.850;2022-10-16T10:04:06;1.37;;;1.27;;
8171;SDS011;4127;47.908;10.850;2022-10-16T10:06:35;1.23;;;1.20;;
8171;SDS011;4127;47.908;10.850;2022-10-16T10:09:15;1.37;;;1.27;;
8171;SDS011;4127;47.908;10.850;2022-10-16T10:14:31;1.10;;;1.10;;
8171;SDS011;4127;47.908;10.850;2022-10-16T10:19:44;1.38;;;1.13;;
8171;SDS011;4127;47.908;10.850;2022-10-16T10:22:24;1.67;;;1.30;;
8171;SDS011;4127;47.908;10.850;2022-10-16T10:30:42;1.83;;;1.20;;
8171;SDS011;4127;47.908;10.850;2022-10-16T10:38:48;1.63;;;1.30;;
8171;SDS011;4127;47.908;10.850;2022-10-16T10:41:38;3.97;;;1.60;;
8171;SDS011;4127;47.908;10.850;2022-10-16T11:05:45;0.98;;;0.98;;
8171;SDS011;4127;47.908;10.850;2022-10-16T11:13:33;0.80;;;0.80;;
8171;SDS011;4127;47.908;10.850;2022-10-16T11:16:17;1.13;;;1.00;;
8171;SDS011;4127;47.908;10.850;2022-10-16T11:21:44;0.85;;;0.65;;
8171;SDS011;4127;47.908;10.850;2022-10-16T11:26:53;1.05;;;0.88;;
8171;SDS011;4127;47.908;10.850;2022-10-16T11:29:25;0.95;;;0.93;;
8171;SDS011;4127;47.908;10.850;2022-10-16T11:31:59;1.80;;;0.70;;
8171;SDS011;4127;47.908;10.850;2022-10-16T11:34:41;1.00;;;1.00;;
8171;SDS011;4127;47.908;10.850;2022-10-16T11:37:23;1.00;;;1.00;;
8171;SDS011;4127;47.908;10.850;2022-10-16T11:39:58;1.10;;;0.93;;
8171;SDS011;4127;47.908;10.850;2022-10-16T11:42:44;1.00;;;1.00;;
8171;SDS011;4127;47.908;10.850;2022-10-16T11:51:11;0.90;;;0.90;;
8171;SDS011;4127;47.908;10.850;2022-10-16T11:54:00;1.00;;;1.00;;
8171;SDS011;4127;47.908;10.850;2022-10-16T11:56:32;1.73;;;1.00;;
8171;SDS011;4127;47.908;10.850;2022-10-16T11:59:06;1.17;;;1.08;;
8171;SDS011;4127;47.908;10.850;2022-10-16T12:09:32;0.95;;;0.93;;
8171;SDS011;4127;47.908;10.850;2022-10-16T12:12:03;0.98;;;0.98;;
8171;SDS011;4127;47.908;10.850;2022-10-16T12:14:35;2.38;;;1.13;;
8171;SDS011;4127;47.908;10.850;2022-10-16T12:17:24;1.10;;;0.98;;
8171;SDS011;4127;47.908;10.850;2022-10-16T12:22:41;1.02;;;0.93;;
8171;SDS011;4127;47.908;10.850;2022-10-16T12:25:19;1.08;;;1.00;;
8171;SDS011;4127;47.908;10.850;2022-10-16T12:27:53;1.00;;;0.80;;
8171;SDS011;4127;47.908;10.850;2022-10-16T12:30:26;2.10;;;0.90;;
8171;SDS011;4127;47.908;10.850;2022-10-16T12:33:06;1.77;;;0.90;;
8171;SDS011;4127;47.908;10.850;2022-10-16T12:35:51;1.00;;;1.00;;
8171;SDS011;4127;47.908;10.850;2022-10-16T12:38:20;0.98;;;0.98;;
8171;SDS011;4127;47.908;10.850;2022-10-16T12:40:58;1.30;;;1.20;;
8171;SDS011;4127;47.908;10.850;2022-10-16T12:48:45;1.55;;;0.93;;
8171;SDS011;4127;47.908;10.850;2022-10-16T12:54:01;1.10;;;0.80;;
8171;SDS011;4127;47.908;10.850;2022-10-16T12:56:39;1.10;;;1.10;;
8171;SDS011;4127;47.908;10.850;2022-10-16T13:10:58;1.42;;;1.33;;
8171;SDS011;4127;47.908;10.850;2022-10-16T13:16:46;2.13;;;1.20;;
8171;SDS011;4127;47.908;10.850;2022-10-16T13:28:21;0.90;;;0.90;;
8171;SDS011;4127;47.908;10.850;2022-10-16T13:30:53;1.23;;;1.13;;
8171;SDS011;4127;47.908;10.850;2022-10-16T13:33:27;0.80;;;0.80;;
8171;SDS011;4127;47.908;10.850;2022-10-16T13:35:59;1.23;;;1.10;;
8171;SDS011;4127;47.908;10.850;2022-10-16T13:38:28;0.90;;;0.90;;
8171;SDS011;4127;47.908;10.850;2022-10-16T13:41:03;1.00;;;0.90;;
8171;SDS011;4127;47.908;10.850;2022-10-16T13:48:33;1.70;;;1.00;;
8171;SDS011;4127;47.908;10.850;2022-10-16T13:51:11;0.90;;;0.90;;
8171;SDS011;4127;47.908;10.850;2022-10-16T13:53:39;1.08;;;1.08;;
8171;SDS011;4127;47.908;10.850;2022-10-16T13:56:10;0.90;;;0.90;;
8171;SDS011;4127;47.908;10.850;2022-10-16T13:58:42;1.10;;;1.00;;
8171;SDS011;4127;47.908;10.850;2022-10-16T14:01:20;0.80;;;0.80;;
8171;SDS011;4127;47.908;10.850;2022-10-16T14:04:04;1.08;;;1.08;;
8171;SDS011;4127;47.908;10.850;2022-10-16T14:06:33;1.17;;;1.00;;
8171;SDS011;4127;47.908;10.850;2022-10-16T14:09:09;1.48;;;1.30;;
8171;SDS011;4127;47.908;10.850;2022-10-16T14:12:09;1.02;;;1.02;;
8171;SDS011;4127;47.908;10.850;2022-10-16T14:14:41;0.90;;;0.90;;
8171;SDS011;4127;47.908;10.850;2022-10-16T14:17:29;0.90;;;0.90;;
8171;SDS011;4127;47.908;10.850;2022-10-16T14:19:59;1.40;;;0.90;;
8171;SDS011;4127;47.908;10.850;2022-10-16T14:22:36;1.20;;;1.10;;
8171;SDS011;4127;47.908;10.850;2022-10-16T14:27:45;1.70;;;1.10;;
8171;SDS011;4127;47.908;10.850;2022-10-16T14:30:23;1.35;;;1.17;;
8171;SDS011;4127;47.908;10.850;2022-10-16T14:33:06;1.20;;;1.10;;
8171;SDS011;4127;47.908;10.850;2022-10-16T14:36:11;3.88;;;3.53;;
8171;SDS011;4127;47.908;10.850;2022-10-16T14:38:41;1.85;;;1.17;;
8171;SDS011;4127;47.908;10.850;2022-10-16T14:41:14;1.77;;;1.00;;
8171;SDS011;4127;47.908;10.850;2022-10-16T14:43:42;1.55;;;1.38;;
8171;SDS011;4127;47.908;10.850;2022-10-16T14:46:16;1.17;;;1.10;;
8171;SDS011;4127;47.908;10.850;2022-10-16T14:48:48;2.40;;;1.10;;
8171;SDS011;4127;47.908;10.850;2022-10-16T14:51:17;0.93;;;0.93;;
8171;SDS011;4127;47.908;10.850;2022-10-16T14:53:45;1.40;;;1.30;;
8171;SDS011;4127;47.908;10.850;2022-10-16T14:56:23;1.00;;;1.00;;
8171;SDS011;4127;47.908;10.850;2022-10-16T14:58:51;1.30;;;1.20;;
8171;SDS011;4127;47.908;10.850;2022-10-16T15:01:19;3.22;;;1.20;;
8171;SDS011;4127;47.908;10.850;2022-10-16T15:03:46;2.78;;;1.27;;
8171;SDS011;4127;47.908;10.850;2022-10-16T15:06:16;1.40;;;1.20;;
8171;SDS011;4127;47.908;10.850;2022-10-16T15:08:42;1.98;;;1.33;;
8171;SDS011;4127;47.908;10.850;2022-10-16T15:11:13;0.90;;;0.90;;
8171;SDS011;4127;47.908;10.850;2022-10-16T15:13:42;1.35;;;1.00;;
8171;SDS011;4127;47.908;10.850;2022-10-16T15:16:13;1.23;;;1.00;;
8171;SDS011;4127;47.908;10.850;2022-10-16T15:18:41;1.20;;;1.10;;
8171;SDS011;4127;47.908;10.850;2022-10-16T15:21:12;1.20;;;1.10;;
8171;SDS011;4127;47.908;10.850;2022-10-16T15:23:56;0.93;;;0.93;;
8171;SDS011;4127;47.908;10.850;2022-10-16T15:26:24;1.13;;;1.00;;
8171;SDS011;4127;47.908;10.850;2022-10-16T15:28:52;1.23;;;1.20;;
8171;SDS011;4127;47.908;10.850;2022-10-16T15:31:19;2.22;;;2.03;;
8171;SDS011;4127;47.908;10.850;2022-10-16T15:33:49;1.40;;;1.30;;
8171;SDS011;4127;47.908;10.850;2022-10-16T15:36:26;4.20;;;3.70;;
8171;SDS011;4127;47.908;10.850;2022-10-16T15:38:54;3.10;;;2.90;;
8171;SDS011;4127;47.908;10.850;2022-10-16T15:41:21;1.77;;;1.67;;
8171;SDS011;4127;47.908;10.850;2022-10-16T15:43:49;1.67;;;1.58;;
8171;SDS011;4127;47.908;10.850;2022-10-16T15:46:19;1.60;;;1.50;;
8171;SDS011;4127;47.908;10.850;2022-10-16T15:48:50;1.48;;;1.38;;
8171;SDS011;4127;47.908;10.850;2022-10-16T15:51:21;2.08;;;1.33;;
8171;SDS011;4127;47.908;10.850;2022-10-16T15:53:48;2.13;;;1.60;;
8171;SDS011;4127;47.908;10.850;2022-10-16T15:56:17;2.17;;;1.40;;
8171;SDS011;4127;47.908;10.850;2022-10-16T15:58:43;2.37;;;1.60;;
8171;SDS011;4127;47.908;10.850;2022-10-16T16:01:10;3.00;;;2.60;;
8171;SDS011;4127;47.908;10.850;2022-10-16T16:03:38;2.90;;;2.60;;
8171;SDS011;4127;47.908;10.850;2022-10-16T16:06:09;2.97;;;2.20;;
8171;SDS011;4127;47.908;10.850;2022-10-16T16:08:38;3.07;;;2.10;;
8171;SDS011;4127;47.908;10.850;2022-10-16T16:11:07;3.13;;;2.17;;
8171;SDS011;4127;47.908;10.850;2022-10-16T16:13:35;4.30;;;2.53;;
8171;SDS011;4127;47.908;10.850;2022-10-16T16:16:06;4.33;;;2.30;;
8171;SDS011;4127;47.908;10.850;2022-10-16T16:18:34;3.97;;;2.10;;
8171;SDS011;4127;47.908;10.850;2022-10-16T16:21:01;3.17;;;2.50;;
8171;SDS011;4127;47.908;10.850;2022-10-16T16:23:28;2.53;;;1.70;;
8171;SDS011;4127;47.908;10.850;2022-10-16T16:26:09;2.07;;;1.87;;
8171;SDS011;4127;47.908;10.850;2022-10-16T16:28:39;2.40;;;1.80;;
8171;SDS011;4127;47.908;10.850;2022-10-16T16:31:07;4.97;;;1.60;;
8171;SDS011;4127;47.908;10.850;2022-10-16T16:33:34;1.60;;;1.50;;
8171;SDS011;4127;47.908;10.850;2022-10-16T16:36:03;1.80;;;1.50;;
8171;SDS011;4127;47.908;10.850;2022-10-16T16:38:38;2.53;;;1.60;;
8171;SDS011;4127;47.908;10.850;2022-10-16T16:44:02;1.30;;;1.20;;
8171;SDS011;4127;47.908;10.850;2022-10-16T16:46:31;1.70;;;1.47;;
8171;SDS011;4127;47.908;10.850;2022-10-16T16:48:59;1.57;;;1.30;;
8171;SDS011;4127;47.908;10.850;2022-10-16T16:51:28;2.07;;;1.80;;
8171;SDS011;4127;47.908;10.850;2022-10-16T16:53:55;1.70;;;1.60;;
8171;SDS011;4127;47.908;10.850;2022-10-16T16:56:22;2.67;;;2.10;;
8171;SDS011;4127;47.908;10.850;2022-10-16T16:58:50;2.83;;;2.60;;
8171;SDS011;4127;47.908;10.850;2022-10-16T17:01:19;4.20;;;3.80;;
8171;SDS011;4127;47.908;10.850;2022-10-16T17:03:49;4.83;;;4.17;;
8171;SDS011;4127;47.908;10.850;2022-10-16T17:06:22;3.80;;;2.90;;
8171;SDS011;4127;47.908;10.850;2022-10-16T17:08:50;5.03;;;4.10;;
8171;SDS011;4127;47.908;10.850;2022-10-16T17:11:19;5.03;;;2.50;;
8171;SDS011;4127;47.908;10.850;2022-10-16T17:13:48;3.20;;;2.90;;
8171;SDS011;4127;47.908;10.850;2022-10-16T17:16:22;2.70;;;2.50;;
8171;SDS011;4127;47.908;10.850;2022-10-16T17:18:50;2.17;;;1.70;;
8171;SDS011;4127;47.908;10.850;2022-10-16T17:21:19;2.10;;;1.90;;
8171;SDS011;4127;47.908;10.850;2022-10-16T17:23:45;2.37;;;2.17;;
8171;SDS011;4127;47.908;10.850;2022-10-16T17:26:13;2.70;;;2.10;;
8171;SDS011;4127;47.908;10.850;2022-10-16T17:28:41;1.70;;;1.60;;
8171;SDS011;4127;47.908;10.850;2022-10-16T17:31:10;2.13;;;1.60;;
8171;SDS011;4127;47.908;10.850;2022-10-16T17:33:39;1.77;;;1.67;;
8171;SDS011;4127;47.908;10.850;2022-10-16T17:36:06;2.30;;;1.67;;
8171;SDS011;4127;47.908;10.850;2022-10-16T17:38:33;2.10;;;1.90;;
8171;SDS011;4127;47.908;10.850;2022-10-16T17:41:09;3.47;;;2.20;;
8171;SDS011;4127;47.908;10.850;2022-10-16T17:43:37;3.33;;;3.03;;
8171;SDS011;4127;47.908;10.850;2022-10-16T17:46:05;3.43;;;3.10;;
8171;SDS011;4127;47.908;10.850;2022-10-16T17:48:36;2.67;;;2.40;;
8171;SDS011;4127;47.908;10.850;2022-10-16T17:51:05;2.40;;;2.20;;
8171;SDS011;4127;47.908;10.850;2022-10-16T17:53:33;2.93;;;2.70;;
8171;SDS011;4127;47.908;10.850;2022-10-16T17:56:01;3.63;;;3.33;;
8171;SDS011;4127;47.908;10.850;2022-10-16T17:58:32;4.63;;;2.50;;
8171;SDS011;4127;47.908;10.850;2022-10-16T18:00:59;2.33;;;2.13;;
8171;SDS011;4127;47.908;10.850;2022-10-16T18:03:26;2.87;;;2.27;;
8171;SDS011;4127;47.908;10.850;2022-10-16T18:05:53;2.97;;;2.33;;
8171;SDS011;4127;47.908;10.850;2022-10-16T18:08:21;9.37;;;5.13;;
8171;SDS011;4127;47.908;10.850;2022-10-16T18:10:53;3.40;;;2.80;;
8171;SDS011;4127;47.908;10.850;2022-10-16T18:13:20;2.33;;;1.90;;
8171;SDS011;4127;47.908;10.850;2022-10-16T18:15:48;3.37;;;1.67;;
8171;SDS011;4127;47.908;10.850;2022-10-16T18:18:25;3.97;;;2.40;;
8171;SDS011;4127;47.908;10.850;2022-10-16T18:20:58;3.00;;;2.33;;
8171;SDS011;4127;47.908;10.850;2022-10-16T18:23:26;2.43;;;2.07;;
8171;SDS011;4127;47.908;10.850;2022-10-16T18:25:54;1.83;;;1.70;;
8171;SDS011;4127;47.908;10.850;2022-10-16T18:28:21;1.77;;;1.67;;
8171;SDS011;4127;47.908;10.850;2022-10-16T18:30:58;2.17;;;1.97;;
8171;SDS011;4127;47.908;10.850;2022-10-16T18:33:26;2.00;;;1.80;;
8171;SDS011;4127;47.908;10.850;2022-10-16T18:35:57;2.73;;;1.87;;
8171;SDS011;4127;47.908;10.850;2022-10-16T18:38:29;3.10;;;1.87;;
8171;SDS011;4127;47.908;10.850;2022-10-16T18:40:56;1.83;;;1.73;;
8171;SDS011;4127;47.908;10.850;2022-10-16T18:43:27;1.83;;;1.73;;
8171;SDS011;4127;47.908;10.850;2022-10-16T18:45:56;2.63;;;1.80;;
8171;SDS011;4127;47.908;10.850;2022-10-16T18:48:24;3.47;;;2.30;;
8171;SDS011;4127;47.908;10.850;2022-10-16T18:50:52;2.80;;;2.20;;
8171;SDS011;4127;47.908;10.850;2022-10-16T18:53:19;6.07;;;3.13;;
8171;SDS011;4127;47.908;10.850;2022-10-16T18:55:50;5.70;;;2.57;;
8171;SDS011;4127;47.908;10.850;2022-10-16T18:58:19;3.60;;;2.80;;
8171;SDS011;4127;47.908;10.850;2022-10-16T19:00:46;5.67;;;3.40;;
8171;SDS011;4127;47.908;10.850;2022-10-16T19:03:13;6.00;;;4.10;;
8171;SDS011;4127;47.908;10.850;2022-10-16T19:05:40;7.53;;;4.93;;
8171;SDS011;4127;47.908;10.850;2022-10-16T19:08:07;4.37;;;3.80;;
8171;SDS011;4127;47.908;10.850;2022-10-16T19:10:35;2.07;;;1.90;;
8171;SDS011;4127;47.908;10.850;2022-10-16T19:13:02;4.00;;;1.70;;
8171;SDS011;4127;47.908;10.850;2022-10-16T19:15:39;2.40;;;1.97;;
8171;SDS011;4127;47.908;10.850;2022-10-16T19:18:09;2.07;;;1.70;;
8171;SDS011;4127;47.908;10.850;2022-10-16T19:20:36;1.90;;;1.73;;
8171;SDS011;4127;47.908;10.850;2022-10-16T19:23:03;1.53;;;1.43;;
8171;SDS011;4127;47.908;10.850;2022-10-16T19:25:29;1.90;;;1.80;;
8171;SDS011;4127;47.908;10.850;2022-10-16T19:27:56;2.20;;;1.90;;
8171;SDS011;4127;47.908;10.850;2022-10-16T19:30:23;1.90;;;1.80;;
8171;SDS011;4127;47.908;10.850;2022-10-16T19:32:50;1.73;;;1.40;;
8171;SDS011;4127;47.908;10.850;2022-10-16T19:35:18;1.77;;;1.47;;
8171;SDS011;4127;47.908;10.850;2022-10-16T19:37:48;1.43;;;1.30;;
8171;SDS011;4127;47.908;10.850;2022-10-16T19:40:15;1.87;;;1.73;;
8171;SDS011;4127;47.908;10.850;2022-10-16T19:42:42;3.27;;;2.47;;
8171;SDS011;4127;47.908;10.850;2022-10-16T19:45:11;5.43;;;3.80;;
8171;SDS011;4127;47.908;10.850;2022-10-16T19:47:37;9.13;;;6.90;;
8171;SDS011;4127;47.908;10.850;2022-10-16T19:50:05;9.50;;;7.03;;
8171;SDS011;4127;47.908;10.850;2022-10-16T19:52:35;8.20;;;6.27;;
8171;SDS011;4127;47.908;10.850;2022-10-16T19:55:03;2.90;;;2.53;;
8171;SDS011;4127;47.908;10.850;2022-10-16T19:57:32;4.43;;;1.80;;
8171;SDS011;4127;47.908;10.850;2022-10-16T20:00:02;2.30;;;2.10;;
8171;SDS011;4127;47.908;10.850;2022-10-16T20:02:34;2.50;;;1.83;;
8171;SDS011;4127;47.908;10.850;2022-10-16T20:05:01;1.93;;;1.83;;
8171;SDS011;4127;47.908;10.850;2022-10-16T20:07:28;2.80;;;1.83;;
8171;SDS011;4127;47.908;10.850;2022-10-16T20:09:59;2.00;;;1.63;;
8171;SDS011;4127;47.908;10.850;2022-10-16T20:12:26;1.80;;;1.70;;